Time;durP1;ratioP1;P1;durP2;ratioP2;P2;SDS_P1;SDS_P2;PMS_P1;PMS_P2;Temp;Humidity;BMP_temperature;BMP_pressure;BME280_temperature;BME280_humidity;BME280_pressure;Samples;Min_cycle;Max_cycle;Signal;HPM_P1;HPM_P2
2021/03/26 00:01:37;;;;;;;18.98;2.42;;;;;;;10.24;78.58;100195.91;5050684;28;20024;-81
2021/03/26 00:04:12;;;;;;;20.17;3.83;;;;;;;10.12;78.74;100177.00;5051566;28;20108;-80
2021/03/26 00:06:44;;;;;;;18.15;3.38;;;;;;;10.13;79.30;100164.16;5057362;28;20021;-78
2021/03/26 00:09:18;;;;;;;19.75;3.35;;;;;;;10.17;79.45;100181.66;5081872;28;20025;-77
2021/03/26 00:11:53;;;;;;;34.75;4.78;;;;;;;10.18;79.87;100183.31;5063431;28;20032;-75
2021/03/26 00:14:19;;;;;;;22.75;3.40;;;;;;;10.14;79.64;100177.56;5062119;28;20064;-75
2021/03/26 00:17:04;;;;;;;16.55;3.25;;;;;;;10.01;79.64;100145.28;5082294;28;20080;-75
2021/03/26 00:19:39;;;;;;;10.40;2.63;;;;;;;10.07;80.24;100159.78;5082592;28;20047;-76
2021/03/26 00:22:06;;;;;;;19.52;3.47;;;;;;;9.94;80.81;100150.19;5052864;28;20052;-78
2021/03/26 00:24:31;;;;;;;22.33;3.40;;;;;;;9.95;80.14;100158.09;5043368;28;20020;-77
2021/03/26 00:26:56;;;;;;;24.60;3.33;;;;;;;10.02;79.92;100152.41;5018818;28;20043;-75
2021/03/26 00:29:29;;;;;;;21.27;3.08;;;;;;;9.99;79.86;100165.75;5052692;28;20036;-76
2021/03/26 00:31:58;;;;;;;20.42;3.22;;;;;;;9.99;80.00;100143.91;5033805;28;20036;-78
2021/03/26 00:34:23;;;;;;;34.05;4.18;;;;;;;9.95;79.42;100136.25;5027310;28;20060;-75
2021/03/26 00:36:51;;;;;;;17.73;2.85;;;;;;;10.03;79.29;100151.31;5066923;28;20823;-76
2021/03/26 00:39:16;;;;;;;24.80;3.20;;;;;;;10.00;79.71;100134.63;5049914;28;20036;-73
2021/03/26 00:41:42;;;;;;;20.85;3.22;;;;;;;9.92;80.48;100125.06;5067374;28;20032;-76
2021/03/26 00:44:08;;;;;;;21.13;2.58;;;;;;;9.74;82.12;100118.19;5071255;28;20039;-78
2021/03/26 00:46:41;;;;;;;14.68;2.30;;;;;;;9.67;83.21;100117.59;5042266;28;20024;-77
2021/03/26 00:49:09;;;;;;;21.48;3.25;;;;;;;9.52;83.85;100148.38;5067296;28;20044;-79
2021/03/26 00:51:36;;;;;;;23.95;2.58;;;;;;;9.55;84.44;100137.75;5075087;28;20021;-78
2021/03/26 00:54:11;;;;;;;23.30;3.70;;;;;;;9.40;85.67;100118.56;5064931;28;20024;-78
2021/03/26 00:57:00;;;;;;;26.80;3.17;;;;;;;9.39;85.41;100133.31;5075213;28;20482;-80
2021/03/26 00:59:44;;;;;;;27.90;4.22;;;;;;;9.30;85.96;100113.06;5067668;28;20039;-77
2021/03/26 01:02:21;;;;;;;22.63;3.08;;;;;;;9.14;86.62;100091.16;5050929;28;20055;-79
2021/03/26 01:04:47;;;;;;;24.20;3.63;;;;;;;9.14;86.69;100093.06;5054364;28;20021;-76
2021/03/26 01:07:14;;;;;;;21.45;3.97;;;;;;;9.29;87.54;100122.31;5053390;28;20016;-77
2021/03/26 01:09:40;;;;;;;23.70;3.55;;;;;;;9.23;87.80;100095.03;5058530;28;20032;-77
2021/03/26 01:12:14;;;;;;;12.50;3.60;;;;;;;9.22;87.39;100098.03;5043994;28;20524;-77
2021/03/26 01:14:53;;;;;;;13.23;3.22;;;;;;;9.26;86.84;100105.41;5097004;28;20044;-78
2021/03/26 01:17:18;;;;;;;9.05;2.75;;;;;;;9.12;87.14;100090.59;5085168;28;20028;-77
2021/03/26 01:19:44;;;;;;;18.80;3.05;;;;;;;9.18;87.56;100078.63;5077155;28;20115;-81
2021/03/26 01:22:19;;;;;;;20.05;3.35;;;;;;;9.31;86.78;100103.78;5045318;28;20028;-79
2021/03/26 01:24:47;;;;;;;15.45;3.58;;;;;;;9.25;87.36;100101.03;5072163;28;20012;-80
2021/03/26 01:27:13;;;;;;;19.00;2.80;;;;;;;9.10;87.42;100051.88;5079097;28;20032;-78
2021/03/26 01:29:47;;;;;;;21.73;3.25;;;;;;;9.08;87.60;100063.03;5070031;28;20088;-80
2021/03/26 01:32:13;;;;;;;21.70;3.83;;;;;;;9.15;86.64;100070.97;5061822;28;20071;-79
2021/03/26 01:34:38;;;;;;;23.67;4.22;;;;;;;9.14;87.04;100050.25;5080732;28;20455;-80
2021/03/26 01:37:05;;;;;;;20.65;3.97;;;;;;;9.26;87.34;100069.94;5062834;28;20024;-80
2021/03/26 01:39:32;;;;;;;9.60;3.08;;;;;;;9.28;86.96;100066.13;5088314;28;20077;-79
2021/03/26 01:42:00;;;;;;;26.38;4.10;;;;;;;9.24;86.35;100055.75;5061283;28;20024;-79
2021/03/26 01:44:28;;;;;;;17.70;3.53;;;;;;;9.33;86.08;100080.63;5076792;28;20032;-79
2021/03/26 01:46:54;;;;;;;15.40;3.40;;;;;;;9.22;86.82;100036.09;5069656;28;20081;-80
2021/03/26 01:49:20;;;;;;;11.18;2.33;;;;;;;9.28;86.68;100042.38;5093995;28;20377;-80
2021/03/26 01:51:48;;;;;;;15.52;3.38;;;;;;;9.30;85.97;100048.41;5039814;28;20086;-80
2021/03/26 01:54:27;;;;;;;10.95;2.67;;;;;;;9.29;86.56;100051.38;5074165;28;20039;-78
2021/03/26 01:56:55;;;;;;;17.90;3.15;;;;;;;9.22;86.68;100016.19;5069421;28;20023;-81
2021/03/26 01:59:21;;;;;;;19.25;3.00;;;;;;;9.14;86.62;100022.97;5073582;28;20530;-76
2021/03/26 02:01:55;;;;;;;20.67;3.30;;;;;;;9.37;86.45;100048.97;5061484;28;20020;-74
2021/03/26 02:04:25;;;;;;;21.25;2.50;;;;;;;9.30;85.99;100033.94;5066656;28;20042;-74
2021/03/26 02:06:53;;;;;;;17.63;3.53;;;;;;;9.20;86.23;100038.28;5094408;28;20378;-74
2021/03/26 02:09:36;;;;;;;14.55;2.80;;;;;;;9.16;86.30;100009.88;5058341;28;20048;-75
2021/03/26 02:12:07;;;;;;;13.98;3.15;;;;;;;9.20;86.94;100016.44;5067664;28;20029;-76
2021/03/26 02:14:41;;;;;;;15.20;2.88;;;;;;;9.19;86.21;100014.78;5099809;28;20036;-76
2021/03/26 02:17:21;;;;;;;10.70;3.50;;;;;;;9.23;86.46;99996.81;5086441;28;20026;-76
2021/03/26 02:19:55;;;;;;;21.55;3.80;;;;;;;9.28;86.21;100017.81;5081007;28;20468;-77
2021/03/26 02:22:23;;;;;;;21.13;3.45;;;;;;;9.17;86.45;99988.84;5070039;28;20077;-78
2021/03/26 02:24:51;;;;;;;22.90;3.45;;;;;;;9.30;85.71;100003.91;5092608;28;20008;-76
2021/03/26 02:27:19;;;;;;;12.48;2.55;;;;;;;9.28;85.82;99985.09;5090781;28;20021;-76
2021/03/26 02:29:47;;;;;;;12.57;2.95;;;;;;;9.29;85.93;99992.19;5078998;28;20025;-76
2021/03/26 02:32:24;;;;;;;14.98;3.42;;;;;;;9.32;85.87;100007.22;5090053;28;20031;-76
2021/03/26 02:35:28;;;;;;;12.50;3.53;;;;;;;9.26;86.07;99999.00;5089442;28;20390;-75
2021/03/26 02:38:15;;;;;;;13.07;2.70;;;;;;;9.25;87.06;100002.81;5062910;28;20037;-81
2021/03/26 02:41:10;;;;;;;17.02;3.10;;;;;;;9.15;87.00;99986.41;5072081;28;20044;-79
2021/03/26 02:44:13;;;;;;;31.88;3.78;;;;;;;9.16;87.21;100004.41;5063407;28;20036;-80
2021/03/26 02:46:55;;;;;;;21.35;3.60;;;;;;;9.14;87.35;99995.69;5077491;28;20034;-79
2021/03/26 02:49:39;;;;;;;20.40;2.90;;;;;;;9.01;87.69;99977.06;5066044;28;20016;-83
2021/03/26 02:52:22;;;;;;;8.35;2.50;;;;;;;9.09;87.00;99992.94;5083193;28;20044;-81
2021/03/26 02:54:54;;;;;;;14.18;2.83;;;;;;;8.88;87.07;99972.94;5079661;28;20478;-80
2021/03/26 02:57:59;;;;;;;18.70;3.35;;;;;;;9.08;87.27;99977.66;5080053;28;20352;-80
2021/03/26 03:00:32;;;;;;;17.13;3.70;;;;;;;9.10;87.23;99980.94;5074976;28;20461;-79
2021/03/26 03:02:59;;;;;;;19.80;2.63;;;;;;;9.05;87.35;99981.75;5066546;28;20394;-79
2021/03/26 03:05:28;;;;;;;13.80;2.40;;;;;;;9.06;87.89;99982.56;5034669;28;20044;-80
2021/03/26 03:08:18;;;;;;;4.88;1.80;;;;;;;9.18;88.11;99969.50;5075490;28;20044;-81
2021/03/26 03:10:50;;;;;;;8.98;2.65;;;;;;;9.17;87.47;99973.34;5064263;28;20418;-80
2021/03/26 03:13:25;;;;;;;9.60;2.08;;;;;;;9.19;87.81;99962.97;5074057;28;20504;-79
2021/03/26 03:16:16;;;;;;;6.45;2.00;;;;;;;9.12;86.85;99958.84;5073170;28;20068;-79
2021/03/26 03:19:15;;;;;;;11.10;3.00;;;;;;;9.17;86.87;99956.97;5066790;28;20036;-81
2021/03/26 03:21:49;;;;;;;11.98;2.88;;;;;;;9.16;86.70;99949.84;5061040;28;20024;-79
2021/03/26 03:24:22;;;;;;;14.25;3.22;;;;;;;9.09;86.98;99922.00;5063100;28;20074;-81
2021/03/26 03:27:03;;;;;;;12.63;2.83;;;;;;;9.22;87.02;99937.06;5061240;28;20505;-80
2021/03/26 03:30:07;;;;;;;12.02;3.40;;;;;;;9.17;87.11;99913.31;5076943;28;20031;-77
2021/03/26 03:32:57;;;;;;;12.43;3.60;;;;;;;9.07;87.70;99919.56;5014568;28;20022;-77
2021/03/26 03:35:35;;;;;;;15.02;3.50;;;;;;;9.06;87.85;99919.81;5009340;28;20040;-77
2021/03/26 03:38:01;;;;;;;17.92;4.03;;;;;;;9.11;87.21;99910.81;5055150;28;20066;-78
2021/03/26 03:40:46;;;;;;;27.30;4.05;;;;;;;9.09;87.77;99909.19;5068313;28;20036;-77
2021/03/26 03:43:36;;;;;;;15.55;2.90;;;;;;;9.11;87.02;99889.81;5089275;28;20023;-77
2021/03/26 03:46:12;;;;;;;21.15;4.00;;;;;;;9.16;87.71;99906.22;5085681;28;20125;-77
2021/03/26 03:48:40;;;;;;;23.65;3.15;;;;;;;9.22;86.75;99910.59;5087574;28;20821;-76
2021/03/26 03:51:45;;;;;;;15.38;3.70;;;;;;;9.14;87.25;99924.78;5094356;28;20456;-77
2021/03/26 03:54:27;;;;;;;21.85;4.88;;;;;;;9.13;87.40;99900.50;5083140;28;20107;-76
2021/03/26 03:57:11;;;;;;;27.45;5.40;;;;;;;9.14;87.37;99889.31;5077006;28;20115;-77
2021/03/26 03:59:53;;;;;;;24.50;3.92;;;;;;;9.21;86.76;99900.78;5071432;28;20036;-76
2021/03/26 04:02:35;;;;;;;17.48;3.13;;;;;;;9.13;87.21;99898.56;5077196;28;20024;-75
2021/03/26 04:05:24;;;;;;;18.92;3.78;;;;;;;9.26;87.04;99899.97;5083915;28;20335;-76
2021/03/26 04:08:02;;;;;;;28.33;3.97;;;;;;;9.23;87.27;99884.94;5066887;28;20024;-76
2021/03/26 04:10:35;;;;;;;13.00;2.63;;;;;;;9.19;86.83;99888.50;5073968;28;20477;-75
2021/03/26 04:13:07;;;;;;;7.35;2.15;;;;;;;9.17;86.99;99880.59;5094314;28;20376;-77
2021/03/26 04:19:09;;;;;;;;;;;;;;;;;;;;;
2021/03/26 04:21:54;;;;;;;11.93;2.75;;;;;;;9.05;87.66;99866.34;5020555;28;20089;-78
2021/03/26 04:24:25;;;;;;;6.15;2.88;;;;;;;9.02;88.02;99872.34;5074950;28;20039;-73
2021/03/26 04:27:12;;;;;;;11.48;2.42;;;;;;;9.04;87.50;99857.38;5088893;28;20535;-74
2021/03/26 04:29:52;;;;;;;11.85;2.67;;;;;;;8.96;88.37;99867.97;5076813;28;20398;-76
2021/03/26 04:32:25;;;;;;;12.48;2.13;;;;;;;8.81;88.12;99861.38;5065981;28;20039;-78
2021/03/26 04:34:52;;;;;;;10.25;2.15;;;;;;;8.83;87.70;99863.84;5081833;28;20089;-73
2021/03/26 04:37:22;;;;;;;7.97;2.22;;;;;;;8.81;88.79;99866.84;5066521;28;20043;-76
2021/03/26 04:40:04;;;;;;;6.55;1.90;;;;;;;8.76;88.15;99864.13;5072486;28;20107;-75
2021/03/26 04:42:51;;;;;;;7.63;1.80;;;;;;;8.71;88.63;99855.91;5081905;28;20105;-76
2021/03/26 04:45:47;;;;;;;9.30;2.22;;;;;;;8.84;88.47;99849.13;5068098;28;20016;-76
2021/03/26 04:48:28;;;;;;;;;;;;;;;8.82;88.53;99863.03;5067383;28;20111;-76
2021/03/26 04:51:05;;;;;;;6.78;1.65;;;;;;;8.61;88.25;99836.78;5083739;28;19908;-76
2021/03/26 04:53:45;;;;;;;11.32;1.58;;;;;;;8.57;88.09;99850.13;5096065;28;20031;-76
2021/03/26 04:56:21;;;;;;;6.63;1.15;;;;;;;8.53;88.65;99854.50;5090669;28;20035;-76
2021/03/26 04:58:51;;;;;;;6.15;1.17;;;;;;;8.48;87.60;99847.09;5074155;28;21687;-77
2021/03/26 05:01:18;;;;;;;4.40;0.93;;;;;;;8.37;88.69;99823.59;5098098;28;20020;-78
2021/03/26 05:03:52;;;;;;;1.83;1.65;;;;;;;8.29;87.83;99811.28;5071376;28;20027;-77
2021/03/26 05:06:26;;;;;;;3.53;0.70;;;;;;;8.17;88.72;99811.50;5079169;28;20038;-78
2021/03/26 05:09:09;;;;;;;9.05;1.60;;;;;;;8.27;88.46;99842.63;5074097;28;20054;-77
2021/03/26 05:11:41;;;;;;;2.17;0.98;;;;;;;8.19;88.28;99822.97;5059410;28;20116;-77
2021/03/26 05:14:14;;;;;;;2.35;1.00;;;;;;;8.23;88.38;99825.16;5082440;28;20086;-77
2021/03/26 05:16:43;;;;;;;4.35;0.88;;;;;;;8.26;88.87;99840.97;5091845;28;20055;-76
2021/03/26 05:19:32;;;;;;;1.13;0.70;;;;;;;8.26;88.12;99838.25;5091894;28;20024;-76
2021/03/26 05:22:18;;;;;;;8.88;1.10;;;;;;;8.21;88.05;99828.97;5089522;28;20111;-77
2021/03/26 05:24:53;;;;;;;4.60;1.10;;;;;;;8.15;88.29;99824.59;5088023;28;20065;-75
2021/03/26 05:31:21;;;;;;;3.97;1.40;;;;;;;8.14;89.08;99792.16;5062004;28;20372;-77
2021/03/26 05:34:07;;;;;;;10.65;1.70;;;;;;;8.10;89.80;99783.69;5089770;28;20051;-78
2021/03/26 05:40:34;;;;;;;6.60;1.95;;;;;;;8.28;89.73;99808.81;5024321;28;20037;-79
2021/03/26 05:43:17;;;;;;;3.30;1.10;;;;;;;8.28;90.08;99796.03;5012126;28;20093;-78
2021/03/26 05:45:48;;;;;;;4.03;1.42;;;;;;;8.18;90.16;99791.38;5092457;28;20089;-79
2021/03/26 05:48:20;;;;;;;4.07;1.48;;;;;;;8.27;90.32;99788.16;5067918;28;20031;-79
2021/03/26 05:51:04;;;;;;;10.38;1.63;;;;;;;8.11;90.10;99788.06;5070778;28;20028;-80
2021/03/26 05:53:44;;;;;;;2.53;0.95;;;;;;;8.00;89.79;99798.09;5072886;28;20089;-78
2021/03/26 05:56:31;;;;;;;4.28;1.17;;;;;;;7.99;89.68;99801.09;5066518;28;20755;-81
2021/03/26 05:59:18;;;;;;;4.07;1.30;;;;;;;7.91;89.87;99794.22;5072220;28;20020;-78
2021/03/26 06:02:01;;;;;;;9.27;2.00;;;;;;;7.59;89.13;99797.81;5083078;28;20417;-78
2021/03/26 06:04:32;;;;;;;5.28;1.40;;;;;;;7.58;89.30;99800.81;5075921;28;20044;-78
2021/03/26 06:07:22;;;;;;;7.22;1.58;;;;;;;7.50;88.79;99767.59;5073078;28;20028;-77
2021/03/26 06:10:04;;;;;;;4.95;1.55;;;;;;;7.42;89.16;99798.00;5086732;28;20028;-76
2021/03/26 06:12:50;;;;;;;20.70;2.63;;;;;;;7.45;89.08;99792.03;5086883;28;20024;-76
2021/03/26 06:15:43;;;;;;;8.18;2.15;;;;;;;7.46;89.69;99766.47;5071575;28;20151;-75
2021/03/26 06:18:18;;;;;;;15.52;2.20;;;;;;;7.40;89.37;99778.38;5073733;28;20426;-75
2021/03/26 06:21:03;;;;;;;7.55;1.83;;;;;;;7.42;90.08;99770.78;5085380;28;20020;-75
2021/03/26 06:23:59;;;;;;;12.30;2.63;;;;;;;7.45;90.05;99802.91;5088776;28;20388;-75
2021/03/26 06:26:46;;;;;;;9.35;2.65;;;;;;;7.59;91.10;99783.41;5065447;28;20027;-76
2021/03/26 06:29:36;;;;;;;6.05;2.67;;;;;;;7.70;90.11;99774.25;5084943;28;20035;-76
2021/03/26 06:32:39;;;;;;;12.73;2.67;;;;;;;7.88;91.31;99767.53;5087985;28;20028;-77
2021/03/26 06:35:42;;;;;;;8.60;2.47;;;;;;;8.04;90.13;99765.69;5088121;28;20339;-74
2021/03/26 06:38:32;;;;;;;27.50;4.07;;;;;;;8.15;90.55;99761.13;5080988;28;20125;-76
2021/03/26 06:41:35;;;;;;;21.58;4.13;;;;;;;8.31;90.42;99764.72;5078972;28;20011;-77
2021/03/26 06:44:15;;;;;;;9.95;3.05;;;;;;;8.39;90.97;99759.56;5076476;28;20016;-78
2021/03/26 06:47:04;;;;;;;19.02;3.28;;;;;;;8.52;90.92;99760.19;5071252;28;20025;-77
2021/03/26 06:49:37;;;;;;;11.68;3.35;;;;;;;8.50;90.31;99732.41;5068757;28;20028;-76
2021/03/26 06:52:17;;;;;;;22.85;3.63;;;;;;;8.61;90.67;99742.22;5061096;28;20429;-76
2021/03/26 06:54:57;;;;;;;16.35;3.33;;;;;;;8.66;90.08;99735.94;5092879;28;20039;-75
2021/03/26 06:57:56;;;;;;;27.58;3.65;;;;;;;8.72;89.49;99757.50;5066906;28;20016;-76
2021/03/26 07:00:30;;;;;;;35.13;4.40;;;;;;;8.81;89.84;99729.72;5068807;28;20032;-75
2021/03/26 07:03:11;;;;;;;14.63;3.30;;;;;;;8.89;89.12;99731.88;5072571;28;20032;-74
2021/03/26 07:06:21;;;;;;;14.05;3.17;;;;;;;8.93;89.55;99776.63;5084217;28;20024;-78
2021/03/26 07:09:09;;;;;;;14.95;2.17;;;;;;;8.98;89.68;99724.81;5071838;28;20028;-76
2021/03/26 07:11:48;;;;;;;18.27;2.83;;;;;;;9.03;88.46;99763.00;5070426;28;20024;-77
2021/03/26 07:14:38;;;;;;;15.00;2.78;;;;;;;9.09;88.95;99709.25;5085348;28;20028;-76
2021/03/26 07:17:55;;;;;;;17.00;3.97;;;;;;;9.16;88.69;99720.72;5090190;28;20028;-77
2021/03/26 07:20:34;;;;;;;23.88;3.03;;;;;;;9.16;88.69;99704.34;5089929;28;20058;-76
2021/03/26 07:23:40;;;;;;;19.63;2.42;;;;;;;9.22;88.73;99703.25;5085390;28;20082;-76
2021/03/26 07:26:37;;;;;;;21.10;2.50;;;;;;;9.19;88.71;99689.34;5061262;28;20033;-75
2021/03/26 07:29:02;;;;;;;;;;;;;;;9.40;87.92;99712.78;5084200;28;20060;-75
2021/03/26 07:31:49;;;;;;;9.45;1.75;;;;;;;9.35;88.28;99706.53;5090759;28;19958;-76
2021/03/26 07:34:54;;;;;;;22.27;2.90;;;;;;;9.36;87.60;99686.31;5062658;28;20523;-76
2021/03/26 07:37:31;;;;;;;15.70;2.67;;;;;;;9.43;87.45;99714.13;5042353;28;20043;-75
2021/03/26 07:40:45;;;;;;;24.13;2.78;;;;;;;9.47;87.58;99703.50;5085846;28;20048;-73
2021/03/26 07:43:42;;;;;;;19.25;3.28;;;;;;;9.51;87.77;99729.94;5056071;28;20093;-73
2021/03/26 07:46:33;;;;;;;12.55;2.63;;;;;;;9.69;87.21;99700.44;5087512;28;20020;-75
2021/03/26 07:49:17;;;;;;;13.27;2.13;;;;;;;9.67;86.25;99729.94;5077869;28;20031;-75
2021/03/26 07:51:54;;;;;;;30.90;3.22;;;;;;;9.51;86.68;99715.50;5063697;28;20470;-76
2021/03/26 07:54:54;;;;;;;11.90;1.90;;;;;;;9.46;86.92;99707.31;5069129;28;20111;-76
2021/03/26 07:57:38;;;;;;;16.35;1.88;;;;;;;9.22;86.76;99695.06;5072682;28;20027;-76
2021/03/26 08:00:31;;;;;;;17.73;2.45;;;;;;;9.13;86.65;99725.91;5091696;28;20035;-77
2021/03/26 08:03:16;;;;;;;4.70;1.35;;;;;;;8.90;87.48;99690.72;5093169;28;20043;-77
2021/03/26 08:06:12;;;;;;;7.72;1.38;;;;;;;8.72;87.74;99689.34;5085965;28;22837;-78
2021/03/26 08:08:58;;;;;;;8.93;1.38;;;;;;;8.60;88.48;99704.31;5069027;28;20033;-77
2021/03/26 08:11:35;;;;;;;4.50;1.90;;;;;;;8.52;88.53;99689.34;5058751;28;20024;-75
2021/03/26 08:14:25;;;;;;;6.82;1.33;;;;;;;8.51;88.46;99685.81;5089276;28;20035;-77
2021/03/26 08:17:14;;;;;;;;;;;;;;;;;;;;;
2021/03/26 08:19:57;;;;;;;7.97;1.35;;;;;;;8.65;89.04;99693.44;5091022;28;20096;-74
2021/03/26 08:22:40;;;;;;;4.95;1.92;;;;;;;8.69;89.27;99670.81;5081844;28;20028;-74
2021/03/26 08:25:27;;;;;;;7.00;2.35;;;;;;;8.80;88.96;99679.81;5066235;28;20047;-75
2021/03/26 08:28:13;;;;;;;9.43;2.08;;;;;;;8.87;89.25;99674.09;5093979;28;20098;-75
2021/03/26 08:31:00;;;;;;;12.90;2.03;;;;;;;8.94;89.63;99712.00;5085967;28;20027;-76
2021/03/26 08:33:38;;;;;;;13.77;2.03;;;;;;;9.01;89.93;99701.63;5088093;28;20035;-76
2021/03/26 08:36:24;;;;;;;;;;;;;;;;;;;;;
2021/03/26 08:39:22;;;;;;;17.52;2.72;;;;;;;9.38;89.27;99690.41;5085078;28;21849;-78
2021/03/26 08:41:59;;;;;;;7.22;2.20;;;;;;;9.65;88.86;99677.50;5071658;28;20485;-75
2021/03/26 08:44:28;;;;;;;15.77;3.28;;;;;;;9.81;88.31;99675.53;5070623;28;20024;-76
2021/03/26 08:47:00;;;;;;;12.82;2.90;;;;;;;9.85;87.21;99712.94;5038473;28;20036;-75
2021/03/26 08:49:40;;;;;;;12.98;2.22;;;;;;;9.70;86.86;99699.34;5075274;28;20466;-75
2021/03/26 08:52:38;;;;;;;18.08;3.42;;;;;;;9.70;87.25;99677.50;5064337;28;20039;-76
2021/03/26 08:55:26;;;;;;;13.30;2.92;;;;;;;9.70;87.36;99658.38;5070317;28;20020;-77
2021/03/26 08:58:19;;;;;;;17.85;2.72;;;;;;;9.58;86.14;99667.69;5058420;28;20039;-76
2021/03/26 09:01:22;;;;;;;14.57;2.58;;;;;;;9.55;86.34;99662.81;5093157;28;20020;-77
2021/03/26 09:04:12;;;;;;;13.38;3.95;;;;;;;9.37;86.20;99661.47;5068019;28;20028;-78
2021/03/26 09:07:11;;;;;;;14.32;3.25;;;;;;;9.47;87.16;99644.25;5070076;28;20059;-75
2021/03/26 09:10:02;;;;;;;16.20;3.03;;;;;;;9.73;86.70;99649.63;5082806;28;20021;-76
2021/03/26 09:12:49;;;;;;;23.83;3.08;;;;;;;10.01;86.02;99636.41;5060583;28;20028;-75
2021/03/26 09:15:35;;;;;;;14.52;3.55;;;;;;;10.24;85.19;99640.38;5069562;28;20044;-77
2021/03/26 09:18:15;;;;;;;32.28;3.75;;;;;;;10.26;84.47;99644.44;5065201;28;20031;-76
2021/03/26 09:20:50;;;;;;;14.77;2.25;;;;;;;10.31;84.31;99646.34;5091411;28;20027;-73
2021/03/26 09:23:38;;;;;;;11.70;2.78;;;;;;;10.22;83.91;99627.00;5068651;28;20611;-74
2021/03/26 09:26:41;;;;;;;19.15;2.85;;;;;;;10.09;83.91;99635.78;5074317;28;20016;-76
2021/03/26 09:29:32;;;;;;;14.90;2.83;;;;;;;10.00;83.71;99645.69;5065664;28;20062;-73
2021/03/26 09:32:06;;;;;;;19.33;2.90;;;;;;;9.89;84.41;99637.53;5092732;28;20052;-75
2021/03/26 09:34:48;;;;;;;;;;;;;;;;;;;;;
2021/03/26 09:37:23;;;;;;;23.08;3.33;;;;;;;9.69;84.67;99629.44;5088138;28;20022;-77
2021/03/26 09:39:58;;;;;;;16.83;3.20;;;;;;;9.60;86.07;99638.19;5079195;28;20024;-75
2021/03/26 09:43:20;;;;;;;14.27;2.10;;;;;;;9.78;85.35;99616.84;5065240;28;20028;-77
2021/03/26 09:45:52;;;;;;;12.88;2.45;;;;;;;9.56;85.92;99618.03;4977366;28;20166;-77
2021/03/26 09:48:44;;;;;;;9.15;2.05;;;;;;;9.61;85.48;99604.38;5084896;28;20036;-77
2021/03/26 09:51:23;;;;;;;18.85;2.20;;;;;;;9.52;85.86;99608.78;5070076;28;20465;-78
2021/03/26 09:53:50;;;;;;;13.23;2.35;;;;;;;9.46;86.07;99628.97;5091584;28;20019;-78
2021/03/26 09:56:40;;;;;;;15.20;2.65;;;;;;;9.40;86.71;99616.44;5070373;28;20517;-77
2021/03/26 09:59:24;;;;;;;32.72;2.90;;;;;;;9.36;86.62;99626.28;5090270;28;20032;-76
2021/03/26 10:02:09;;;;;;;10.70;2.55;;;;;;;9.24;87.18;99621.13;5079056;28;20023;-77
2021/03/26 10:04:42;;;;;;;9.32;2.47;;;;;;;9.19;86.95;99624.69;5083847;28;20082;-76
2021/03/26 10:07:36;;;;;;;17.92;2.97;;;;;;;9.06;87.93;99617.88;5071740;28;20507;-76
2021/03/26 10:13:21;;;;;;;16.27;3.35;;;;;;;9.08;87.92;99601.25;5097961;28;20035;-78
2021/03/26 10:16:18;;;;;;;15.73;2.50;;;;;;;8.86;87.79;99629.66;5067629;28;20039;-75
2021/03/26 10:19:31;;;;;;;;;;;;;;;;;;;;;
2021/03/26 10:22:24;;;;;;;14.10;2.90;;;;;;;8.88;88.07;99641.09;5094978;28;20085;-77
2021/03/26 10:25:05;;;;;;;23.00;2.33;;;;;;;8.83;88.51;99589.28;5065518;28;20012;-76
2021/03/26 10:27:55;;;;;;;17.17;2.95;;;;;;;8.90;88.46;99595.28;5067850;28;20066;-77
2021/03/26 10:30:42;;;;;;;10.70;2.25;;;;;;;8.96;88.76;99603.47;5073399;28;20082;-75
2021/03/26 10:33:14;;;;;;;21.50;3.58;;;;;;;8.77;89.15;99587.66;5069003;28;20111;-76
2021/03/26 10:36:19;;;;;;;9.68;2.30;;;;;;;8.77;89.22;99560.41;5067991;28;20507;-75
2021/03/26 10:39:04;;;;;;;10.18;2.80;;;;;;;8.83;89.77;99581.13;5084088;28;20028;-76
2021/03/26 10:43:09;;;;;;;15.88;3.13;;;;;;;8.92;89.66;99614.09;5085426;28;20020;-77
2021/03/26 10:45:57;;;;;;;10.85;1.75;;;;;;;8.97;88.84;99652.28;5082879;28;20057;-79
2021/03/26 10:49:03;;;;;;;7.32;1.35;;;;;;;8.97;89.58;99640.56;5073368;28;20043;-79
2021/03/26 10:51:53;;;;;;;7.43;1.70;;;;;;;8.94;88.92;99641.13;5091111;28;20020;-78
2021/03/26 10:54:50;;;;;;;4.28;1.23;;;;;;;9.14;89.12;99657.44;5086054;28;20031;-77
2021/03/26 10:57:37;;;;;;;7.50;1.30;;;;;;;9.00;89.29;99629.09;5062910;28;20068;-76
2021/03/26 11:01:11;;;;;;;;;;;;;;;;;;;;;
2021/03/26 11:07:26;;;;;;;5.28;0.80;;;;;;;9.16;88.26;99654.44;5074423;28;20029;-76
2021/03/26 11:10:00;;;;;;;1.40;0.60;;;;;;;9.02;87.78;99644.09;5091027;28;20020;-74
2021/03/26 11:12:58;;;;;;;3.20;0.32;;;;;;;9.06;87.94;99671.63;5066499;28;20127;-77
2021/03/26 11:15:32;;;;;;;2.75;0.73;;;;;;;8.84;87.28;99652.84;5073134;28;20044;-79
2021/03/26 11:18:09;;;;;;;3.22;0.50;;;;;;;8.77;87.04;99680.34;5088463;28;20023;-78
2021/03/26 11:20:42;;;;;;;1.30;0.47;;;;;;;8.70;87.58;99679.81;5074048;28;20028;-77
2021/03/26 11:23:53;;;;;;;2.13;0.52;;;;;;;8.73;87.59;99662.91;5059709;28;20110;-74
2021/03/26 11:26:42;;;;;;;3.25;0.50;;;;;;;8.72;87.12;99672.19;5008236;28;20031;-80
2021/03/26 11:29:32;;;;;;;0.90;0.50;;;;;;;8.68;86.90;99690.19;5071399;28;20031;-77
2021/03/26 11:35:16;;;;;;;1.75;0.43;;;;;;;8.81;87.66;99680.66;5086113;28;20032;-79
2021/03/26 11:38:01;;;;;;;5.45;0.40;;;;;;;8.74;86.95;99667.28;5092068;28;20035;-75
2021/03/26 11:40:55;;;;;;;1.02;0.47;;;;;;;8.79;87.61;99664.56;5086288;28;20032;-75
2021/03/26 11:43:42;;;;;;;1.23;0.65;;;;;;;8.79;86.85;99661.00;5064511;28;20027;-73
2021/03/26 11:46:34;;;;;;;2.75;0.30;;;;;;;9.04;87.22;99687.47;5086152;28;20023;-75
2021/03/26 11:49:29;;;;;;;1.83;0.47;;;;;;;9.16;86.38;99726.16;5088222;28;20040;-77
2021/03/26 11:52:17;;;;;;;1.02;0.38;;;;;;;8.82;85.86;99715.81;5043028;28;20032;-74
2021/03/26 11:55:00;;;;;;;0.20;0.10;;;;;;;8.30;85.27;99708.59;5092096;28;20054;-73
2021/03/26 11:57:52;;;;;;;2.83;0.28;;;;;;;7.94;85.60;99705.75;5070533;28;20438;-75
2021/03/26 12:00:30;;;;;;;1.55;0.10;;;;;;;7.58;85.00;99703.69;5062586;28;20018;-74
2021/03/26 12:03:15;;;;;;;2.65;0.20;;;;;;;7.38;86.56;99719.91;5088488;28;20024;-75
2021/03/26 12:05:44;;;;;;;3.33;0.47;;;;;;;7.26;86.06;99717.38;5067709;28;20568;-74
2021/03/26 12:08:23;;;;;;;1.75;0.20;;;;;;;7.25;86.86;99711.09;5091968;28;20091;-74
2021/03/26 12:11:10;;;;;;;0.20;0.10;;;;;;;7.29;86.79;99711.41;5074743;28;20071;-74
2021/03/26 12:13:48;;;;;;;0.22;0.13;;;;;;;7.53;87.33;99713.72;5084465;28;20054;-74
2021/03/26 12:16:19;;;;;;;0.43;0.20;;;;;;;7.72;87.00;99704.03;5073939;28;20050;-74
2021/03/26 12:18:51;;;;;;;4.68;0.20;;;;;;;8.10;87.31;99715.59;5082369;28;20024;-73
2021/03/26 12:21:22;;;;;;;0.60;0.10;;;;;;;8.38;86.13;99706.19;5081082;28;20054;-74
2021/03/26 12:24:30;;;;;;;4.53;0.73;;;;;;;8.64;86.22;99708.97;5068477;28;20035;-73
2021/03/26 12:27:20;;;;;;;2.80;0.10;;;;;;;8.83;85.45;99705.72;5082967;28;20058;-73
2021/03/26 12:30:15;;;;;;;0.70;0.40;;;;;;;8.97;85.59;99711.47;5090709;28;20117;-73
2021/03/26 12:32:50;;;;;;;0.68;0.20;;;;;;;9.09;85.94;99715.53;5078553;28;20042;-72
2021/03/26 12:35:32;;;;;;;2.58;0.68;;;;;;;9.23;85.18;99707.63;5086525;28;20028;-74
2021/03/26 12:37:57;;;;;;;0.30;0.20;;;;;;;9.40;84.71;99709.22;5072839;28;20030;-73
2021/03/26 12:40:48;;;;;;;0.10;0.10;;;;;;;9.54;84.88;99693.91;5075973;28;20028;-74
2021/03/26 12:43:22;;;;;;;1.20;0.28;;;;;;;9.79;84.43;99719.50;5085215;28;20437;-72
2021/03/26 12:46:20;;;;;;;0.30;0.20;;;;;;;9.91;84.48;99717.25;5063596;28;20120;-75
2021/03/26 12:49:04;;;;;;;1.25;0.22;;;;;;;10.01;84.33;99713.69;5084984;28;20132;-76
2021/03/26 12:51:48;;;;;;;2.88;0.43;;;;;;;10.04;83.95;99709.59;5062565;28;20052;-73
2021/03/26 12:54:36;;;;;;;1.13;0.43;;;;;;;9.95;82.87;99720.28;5086511;28;20055;-73
2021/03/26 12:57:30;;;;;;;3.03;0.63;;;;;;;9.89;81.87;99710.47;5060563;28;20794;-74
2021/03/26 13:00:21;;;;;;;3.50;0.45;;;;;;;9.81;82.37;99711.84;5077210;28;20040;-75
2021/03/26 13:03:22;;;;;;;4.28;0.57;;;;;;;9.91;82.53;99720.00;5057999;28;20036;-75
2021/03/26 13:06:17;;;;;;;0.43;0.28;;;;;;;10.02;81.76;99715.34;5083709;28;20055;-75
2021/03/26 13:09:34;;;;;;;;;;;;;;;;;;;;;
2021/03/26 13:12:39;;;;;;;;;;;;;;;;;;;;;
2021/03/26 13:15:33;;;;;;;0.90;0.30;;;;;;;10.15;81.33;99722.09;5085382;28;20119;-77
2021/03/26 13:18:13;;;;;;;3.88;0.50;;;;;;;10.21;81.55;99712.78;5071002;28;20031;-75